| time (UTC) | temp C | wind direction | speed KPH | gust KPH | rain 1hr cm | rain 24hr cm | rain mn cm | humidity % | barometer mb |
| 20260510015836 | 15 | 103 | 1.6 | 1.6 | 0.00 | 0.00 | 0.00 | 74 | 1009.8 |
| 20260510015332 | 15 | 102 | 1.6 | 1.6 | 0.00 | 0.00 | 0.00 | 73 | 1009.8 |
| 20260510014828 | 15 | 111 | 1.6 | 1.6 | 0.00 | 0.00 | 0.00 | 71 | 1009.8 |
| 20260510014325 | 16 | 101 | 1.6 | 3.2 | 0.00 | 0.00 | 0.00 | 70 | 1009.7 |
| 20260510013821 | 16 | 113 | 0.0 | 0.0 | 0.00 | 0.00 | 0.00 | 69 | 1009.4 |
| 20260510013317 | 16 | 190 | 0.0 | 1.6 | 0.00 | 0.00 | 0.00 | 69 | 1009.5 |
| 20260510012818 | 16 | 131 | 1.6 | 1.6 | 0.00 | 0.00 | 0.00 | 69 | 1009.2 |
| 20260510012317 | 16 | 140 | 1.6 | 1.6 | 0.00 | 0.00 | 0.00 | 68 | 1009.2 |
| 20260510011812 | 16 | 117 | 0.0 | 0.0 | 0.00 | 0.00 | 0.00 | 68 | 1009.3 |
| 20260510011308 | 16 | 123 | 1.6 | 1.6 | 0.00 | 0.00 | 0.00 | 67 | 1009.2 |
| 20260510010805 | 17 | 8 | 1.6 | 1.6 | 0.00 | 0.00 | 0.00 | 66 | 1009.2 |
| 20260510010302 | 16 | 117 | 0.0 | 1.6 | 0.00 | 0.00 | 0.00 | 63 | 1008.9 |
| 20260510005759 | 16 | 95 | 0.0 | 0.0 | 0.00 | 0.00 | 0.00 | 66 | 1008.7 |
| 20260510005255 | 17 | 124 | 0.0 | 1.6 | 0.00 | 0.00 | 0.00 | 66 | 1008.8 |
| 20260510004753 | 17 | 103 | 1.6 | 1.6 | 0.00 | 0.00 | 0.00 | 65 | 1008.7 |
| 20260510004250 | 17 | 351 | 4.8 | 4.8 | 0.00 | 0.00 | 0.00 | 64 | 1008.6 |
| 20260510003747 | 18 | 113 | 0.0 | 0.0 | 0.00 | 0.00 | 0.00 | 61 | 1008.5 |
| 20260510003244 | 18 | 117 | 0.0 | 1.6 | 0.00 | 0.00 | 0.00 | 61 | 1008.4 |
| 20260510002742 | 18 | 109 | 1.6 | 1.6 | 0.00 | 0.00 | 0.00 | 61 | 1008.1 |
| 20260510002240 | 18 | 125 | 0.0 | 0.0 | 0.00 | 0.00 | 0.00 | 60 | 1008.1 |
| 20260510001737 | 18 | 122 | 0.0 | 1.6 | 0.00 | 0.00 | 0.00 | 59 | 1008.2 |
| 20260510001235 | 18 | 123 | 0.0 | 0.0 | 0.00 | 0.00 | 0.00 | 59 | 1008.0 |
| 20260510000731 | 19 | 107 | 1.6 | 1.6 | 0.00 | 0.00 | 0.00 | 59 | 1007.7 |
| 20260510000228 | 19 | 116 | 1.6 | 1.6 | 0.00 | 0.00 | 0.00 | 59 | 1007.7 |
| 20260509235725 | 20 | 122 | 0.0 | 1.6 | 0.00 | 0.00 | 0.00 | 58 | 1007.9 |
| 20260509235221 | 21 | 144 | 1.6 | 1.6 | 0.00 | 0.00 | 0.00 | 55 | 1007.9 |
| 20260509234717 | 21 | 170 | 1.6 | 3.2 | 0.00 | 0.00 | 0.00 | 51 | 1007.9 |
| 20260509234216 | 21 | 148 | 4.8 | 4.8 | 0.00 | 0.00 | 0.00 | 50 | 1007.9 |
| 20260509233714 | 21 | 184 | 4.8 | 4.8 | 0.00 | 0.00 | 0.00 | 51 | 1007.7 |
| 20260509233211 | 21 | 186 | 3.2 | 3.2 | 0.00 | 0.00 | 0.00 | 51 | 1008.1 |
| 20260509232707 | 21 | 182 | 4.8 | 4.8 | 0.00 | 0.00 | 0.00 | 52 | 1008.1 |
| 20260509232204 | 21 | 168 | 4.8 | 4.8 | 0.00 | 0.00 | 0.00 | 51 | 1007.9 |
| 20260509231700 | 21 | 184 | 3.2 | 4.8 | 0.00 | 0.00 | 0.00 | 50 | 1007.9 |
| 20260509231157 | 21 | 158 | 3.2 | 3.2 | 0.00 | 0.00 | 0.00 | 49 | 1007.9 |
| 20260509230654 | 21 | 178 | 4.8 | 4.8 | 0.00 | 0.00 | 0.00 | 50 | 1007.9 |
| 20260509230151 | 22 | 167 | 4.8 | 4.8 | 0.00 | 0.00 | 0.00 | 50 | 1007.6 |
| 20260509225647 | 22 | 174 | 3.2 | 3.2 | 0.00 | 0.00 | 0.00 | 47 | 1007.5 |
| 20260509225142 | 22 | 198 | 4.8 | 4.8 | 0.00 | 0.00 | 0.00 | 48 | 1007.5 |
| 20260509224638 | 22 | 188 | 6.4 | 8.0 | 0.00 | 0.00 | 0.00 | 47 | 1007.6 |
| 20260509224135 | 22 | 152 | 6.4 | 9.7 | 0.00 | 0.00 | 0.00 | 47 | 1007.9 |
| 20260509223632 | 22 | 183 | 6.4 | 8.0 | 0.00 | 0.00 | 0.00 | 46 | 1007.7 |
| 20260509223129 | 23 | 166 | 11.3 | 14.5 | 0.00 | 0.00 | 0.00 | 45 | 1007.6 |
| 20260509222626 | 23 | 169 | 12.9 | 16.1 | 0.00 | 0.00 | 0.00 | 45 | 1007.9 |
| 20260509222121 | 23 | 148 | 6.4 | 8.0 | 0.00 | 0.00 | 0.00 | 44 | 1007.6 |
| 20260509221618 | 23 | 161 | 9.7 | 11.3 | 0.00 | 0.00 | 0.00 | 44 | 1007.9 |
| 20260509221114 | 22 | 179 | 4.8 | 4.8 | 0.00 | 0.00 | 0.00 | 44 | 1007.7 |
| 20260509220609 | 22 | 158 | 9.7 | 11.3 | 0.00 | 0.00 | 0.00 | 44 | 1007.6 |
| 20260509220106 | 23 | 177 | 12.9 | 16.1 | 0.00 | 0.00 | 0.00 | 43 | 1007.5 |
| 20260509215601 | 23 | 199 | 11.3 | 16.1 | 0.00 | 0.00 | 0.00 | 43 | 1007.6 |
| 20260509215059 | 23 | 186 | 8.0 | 9.7 | 0.00 | 0.00 | 0.00 | 43 | 1007.5 |
| 20260509214557 | 22 | 169 | 6.4 | 9.7 | 0.00 | 0.00 | 0.00 | 44 | 1007.6 |
| 20260509214053 | 22 | 151 | 3.2 | 4.8 | 0.00 | 0.00 | 0.00 | 45 | 1007.5 |
| 20260509213549 | 23 | 165 | 6.4 | 8.0 | 0.00 | 0.00 | 0.00 | 45 | 1007.7 |
| 20260509213046 | 23 | 195 | 14.5 | 16.1 | 0.00 | 0.00 | 0.00 | 43 | 1007.3 |
| 20260509212543 | 22 | 173 | 8.0 | 11.3 | 0.00 | 0.00 | 0.00 | 46 | 1007.5 |
| 20260509212040 | 22 | 190 | 6.4 | 8.0 | 0.00 | 0.00 | 0.00 | 50 | 1007.4 |
| 20260509211535 | 23 | 142 | 6.4 | 8.0 | 0.00 | 0.00 | 0.00 | 49 | 1007.2 |
| 20260509211033 | 23 | 171 | 1.6 | 1.6 | 0.00 | 0.00 | 0.00 | 50 | 1007.5 |
| 20260509210529 | 22 | 162 | 1.6 | 1.6 | 0.00 | 0.00 | 0.00 | 51 | 1007.4 |
| 20260509210026 | 22 | 150 | 3.2 | 3.2 | 0.00 | 0.00 | 0.00 | 52 | 1007.2 |
| 20260509205526 | 22 | 149 | 3.2 | 3.2 | 0.00 | 0.00 | 0.00 | 49 | 1007.2 |
| 20260509205021 | 22 | 157 | 3.2 | 4.8 | 0.00 | 0.00 | 0.00 | 50 | 1007.3 |
| 20260509204518 | 22 | 153 | 3.2 | 4.8 | 0.00 | 0.00 | 0.00 | 49 | 1007.4 |
| 20260509204014 | 22 | 117 | 1.6 | 3.2 | 0.00 | 0.00 | 0.00 | 50 | 1007.3 |
| 20260509203510 | 22 | 123 | 4.8 | 4.8 | 0.00 | 0.00 | 0.00 | 47 | 1007.1 |
| 20260509203009 | 22 | 116 | 8.0 | 9.7 | 0.00 | 0.00 | 0.00 | 48 | 1007.1 |
| 20260509202509 | 23 | 128 | 4.8 | 4.8 | 0.00 | 0.00 | 0.00 | 45 | 1006.9 |
| 20260509202004 | 23 | 170 | 11.3 | 12.9 | 0.00 | 0.00 | 0.00 | 43 | 1007.2 |
| 20260509201459 | 23 | 188 | 14.5 | 16.1 | 0.00 | 0.00 | 0.00 | 42 | 1007.4 |
| 20260509200957 | 22 | 205 | 12.9 | 14.5 | 0.00 | 0.00 | 0.00 | 44 | 1007.1 |
| 20260509200452 | 22 | 178 | 8.0 | 8.0 | 0.00 | 0.00 | 0.00 | 45 | 1007.3 |
| 20260509195949 | 23 | 131 | 4.8 | 4.8 | 0.00 | 0.00 | 0.00 | 47 | 1007.3 |
| 20260509195444 | 24 | 90 | 6.4 | 9.7 | 0.00 | 0.00 | 0.00 | 46 | 1007.1 |
| 20260509194944 | 24 | 189 | 4.8 | 8.0 | 0.00 | 0.00 | 0.00 | 46 | 1007.3 |
| 20260509194439 | 23 | 159 | 4.8 | 8.0 | 0.00 | 0.00 | 0.00 | 48 | 1007.5 |
| 20260509193937 | 23 | 150 | 9.7 | 12.9 | 0.00 | 0.00 | 0.00 | 44 | 1007.5 |
| 20260509193436 | 23 | 224 | 6.4 | 9.7 | 0.00 | 0.00 | 0.00 | 42 | 1007.5 |
| 20260509192933 | 22 | 148 | 6.4 | 9.7 | 0.00 | 0.00 | 0.00 | 43 | 1008.0 |
| 20260509192429 | 23 | 192 | 16.1 | 17.7 | 0.00 | 0.00 | 0.00 | 40 | 1007.7 |
| 20260509191925 | 23 | 182 | 9.7 | 11.3 | 0.00 | 0.00 | 0.00 | 44 | 1008.0 |
| 20260509191420 | 23 | 220 | 9.7 | 12.9 | 0.00 | 0.00 | 0.00 | 45 | 1007.6 |
| 20260509190916 | 22 | 204 | 4.8 | 8.0 | 0.00 | 0.00 | 0.00 | 49 | 1007.7 |
| 20260509190414 | 22 | 158 | 1.6 | 1.6 | 0.00 | 0.00 | 0.00 | 48 | 1007.9 |
| 20260509185911 | 21 | 190 | 6.4 | 8.0 | 0.00 | 0.00 | 0.00 | 49 | 1007.7 |
| 20260509185409 | 23 | 154 | 8.0 | 12.9 | 0.00 | 0.00 | 0.00 | 48 | 1007.7 |
| 20260509184905 | 22 | 109 | 1.6 | 1.6 | 0.00 | 0.00 | 0.00 | 50 | 1008.1 |
| 20260509184402 | 22 | 188 | 8.0 | 8.0 | 0.00 | 0.00 | 0.00 | 50 | 1008.2 |
| 20260509183859 | 22 | 218 | 9.7 | 12.9 | 0.00 | 0.00 | 0.00 | 49 | 1008.3 |
| 20260509183353 | 22 | 182 | 9.7 | 11.3 | 0.00 | 0.00 | 0.00 | 52 | 1008.4 |
| 20260509182849 | 22 | 122 | 11.3 | 12.9 | 0.00 | 0.00 | 0.00 | 51 | 1008.2 |
| 20260509182347 | 22 | 151 | 3.2 | 3.2 | 0.00 | 0.00 | 0.00 | 52 | 1008.4 |
| 20260509181844 | 22 | 175 | 6.4 | 9.7 | 0.00 | 0.00 | 0.00 | 51 | 1008.3 |
| 20260509181341 | 22 | 106 | 4.8 | 4.8 | 0.00 | 0.00 | 0.00 | 52 | 1008.4 |
| 20260509180839 | 21 | 168 | 8.0 | 9.7 | 0.00 | 0.00 | 0.00 | 52 | 1008.7 |
| 20260509180334 | 21 | 159 | 4.8 | 9.7 | 0.00 | 0.00 | 0.00 | 53 | 1008.6 |
| 20260509175832 | 21 | 147 | 8.0 | 11.3 | 0.00 | 0.00 | 0.00 | 52 | 1009.0 |
| 20260509175328 | 21 | 144 | 8.0 | 9.7 | 0.00 | 0.00 | 0.00 | 55 | 1008.7 |
| 20260509174824 | 21 | 148 | 3.2 | 4.8 | 0.00 | 0.00 | 0.00 | 51 | 1009.0 |
| 20260509174319 | 20 | 176 | 6.4 | 8.0 | 0.00 | 0.00 | 0.00 | 50 | 1009.2 |
| 20260509173816 | 20 | 187 | 12.9 | 14.5 | 0.00 | 0.00 | 0.00 | 50 | 1009.1 |
| 20260509173311 | 20 | 184 | 4.8 | 8.0 | 0.00 | 0.00 | 0.00 | 50 | 1009.3 |
| 20260509172807 | 20 | 158 | 3.2 | 3.2 | 0.00 | 0.00 | 0.00 | 51 | 1009.3 |
| 20260509172306 | 20 | 172 | 8.0 | 9.7 | 0.00 | 0.00 | 0.00 | 51 | 1009.3 |
| 20260509171800 | 20 | 111 | 4.8 | 4.8 | 0.00 | 0.00 | 0.00 | 54 | 1009.3 |
| 20260509171256 | 20 | 171 | 6.4 | 9.7 | 0.00 | 0.00 | 0.00 | 54 | 1009.4 |
| 20260509170753 | 20 | 207 | 4.8 | 9.7 | 0.00 | 0.00 | 0.00 | 55 | 1009.5 |
| 20260509170249 | 20 | 153 | 6.4 | 8.0 | 0.00 | 0.00 | 0.00 | 54 | 1009.3 |
| 20260509165748 | 20 | 178 | 8.0 | 9.7 | 0.00 | 0.00 | 0.00 | 54 | 1009.4 |
| 20260509165243 | 20 | 192 | 8.0 | 9.7 | 0.00 | 0.00 | 0.00 | 52 | 1009.4 |
| 20260509164739 | 20 | 191 | 6.4 | 9.7 | 0.00 | 0.00 | 0.00 | 48 | 1009.3 |
| 20260509164235 | 20 | 112 | 3.2 | 3.2 | 0.00 | 0.00 | 0.00 | 50 | 1009.2 |
| 20260509163733 | 20 | 191 | 4.8 | 9.7 | 0.00 | 0.00 | 0.00 | 48 | 1009.5 |
| 20260509163229 | 20 | 187 | 4.8 | 8.0 | 0.00 | 0.00 | 0.00 | 51 | 1009.5 |
| 20260509162727 | 20 | 206 | 6.4 | 8.0 | 0.00 | 0.00 | 0.00 | 52 | 1009.3 |
| 20260509162221 | 20 | 188 | 9.7 | 12.9 | 0.00 | 0.00 | 0.00 | 51 | 1009.3 |
| 20260509161717 | 20 | 202 | 14.5 | 16.1 | 0.00 | 0.00 | 0.00 | 55 | 1009.4 |
| 20260509161214 | 19 | 173 | 9.7 | 11.3 | 0.00 | 0.00 | 0.00 | 56 | 1009.5 |
| 20260509160709 | 20 | 193 | 8.0 | 11.3 | 0.00 | 0.00 | 0.00 | 55 | 1009.4 |
| 20260509160206 | 20 | 202 | 12.9 | 14.5 | 0.00 | 0.00 | 0.00 | 52 | 1009.5 |
| 20260509155701 | 20 | 195 | 4.8 | 9.7 | 0.00 | 0.00 | 0.00 | 55 | 1009.5 |
| 20260509155157 | 20 | 176 | 11.3 | 12.9 | 0.00 | 0.00 | 0.00 | 55 | 1009.3 |
| 20260509154653 | 19 | 172 | 9.7 | 11.3 | 0.00 | 0.00 | 0.00 | 56 | 1009.4 |
| 20260509154151 | 19 | 198 | 8.0 | 9.7 | 0.00 | 0.00 | 0.00 | 56 | 1009.5 |
| 20260509153647 | 19 | 168 | 12.9 | 14.5 | 0.00 | 0.00 | 0.00 | 56 | 1009.4 |
| 20260509153144 | 19 | 143 | 14.5 | 17.7 | 0.00 | 0.00 | 0.00 | 56 | 1009.5 |
| 20260509152640 | 19 | 183 | 11.3 | 12.9 | 0.00 | 0.00 | 0.00 | 56 | 1009.3 |
| 20260509152137 | 18 | 163 | 8.0 | 12.9 | 0.00 | 0.00 | 0.00 | 55 | 1009.2 |
| 20260509151634 | 18 | 174 | 8.0 | 11.3 | 0.00 | 0.00 | 0.00 | 56 | 1009.3 |
| 20260509151131 | 18 | 173 | 11.3 | 12.9 | 0.00 | 0.00 | 0.00 | 57 | 1009.2 |
| 20260509150629 | 18 | 179 | 9.7 | 14.5 | 0.00 | 0.00 | 0.00 | 57 | 1009.5 |
| 20260509150127 | 18 | 193 | 4.8 | 4.8 | 0.00 | 0.00 | 0.00 | 58 | 1009.5 |
| 20260509145623 | 19 | 168 | 8.0 | 11.3 | 0.00 | 0.00 | 0.00 | 55 | 1009.3 |
| 20260509145118 | 19 | 181 | 9.7 | 11.3 | 0.00 | 0.00 | 0.00 | 57 | 1009.5 |
| 20260509144615 | 18 | 181 | 4.8 | 8.0 | 0.00 | 0.00 | 0.00 | 58 | 1009.3 |
| 20260509144112 | 18 | 171 | 4.8 | 8.0 | 0.00 | 0.00 | 0.00 | 58 | 1009.5 |
| 20260509143609 | 17 | 181 | 4.8 | 4.8 | 0.00 | 0.00 | 0.00 | 60 | 1009.6 |
| 20260509143107 | 17 | 196 | 8.0 | 11.3 | 0.00 | 0.00 | 0.00 | 62 | 1009.4 |
| 20260509142602 | 17 | 153 | 6.4 | 9.7 | 0.00 | 0.00 | 0.00 | 61 | 1009.3 |
| 20260509142058 | 17 | 170 | 8.0 | 11.3 | 0.00 | 0.00 | 0.00 | 62 | 1009.8 |
| 20260509141555 | 17 | 104 | 11.3 | 14.5 | 0.00 | 0.00 | 0.00 | 63 | 1009.9 |
| 20260509141051 | 17 | 159 | 8.0 | 9.7 | 0.00 | 0.00 | 0.00 | 62 | 1010.2 |
| 20260509140548 | 17 | 206 | 14.5 | 16.1 | 0.00 | 0.00 | 0.00 | 63 | 1010.0 |
| 20260509140046 | 17 | 173 | 12.9 | 14.5 | 0.00 | 0.00 | 0.00 | 63 | 1010.2 |
| 20260509135543 | 16 | 180 | 8.0 | 9.7 | 0.00 | 0.00 | 0.00 | 65 | 1010.3 |
| 20260509135041 | 16 | 192 | 11.3 | 12.9 | 0.00 | 0.00 | 0.00 | 64 | 1010.4 |
| 20260509134537 | 16 | 118 | 4.8 | 4.8 | 0.00 | 0.00 | 0.00 | 65 | 1010.6 |
| 20260509134035 | 16 | 129 | 9.7 | 14.5 | 0.00 | 0.00 | 0.00 | 64 | 1010.4 |
| 20260509133532 | 16 | 189 | 9.7 | 12.9 | 0.00 | 0.00 | 0.00 | 67 | 1010.5 |
| 20260509133029 | 16 | 161 | 8.0 | 11.3 | 0.00 | 0.00 | 0.00 | 66 | 1010.5 |
| 20260509132528 | 15 | 177 | 8.0 | 9.7 | 0.00 | 0.00 | 0.00 | 66 | 1010.7 |
| 20260509132026 | 15 | 176 | 8.0 | 9.7 | 0.00 | 0.00 | 0.00 | 66 | 1010.6 |
| 20260509131521 | 15 | 163 | 6.4 | 8.0 | 0.00 | 0.00 | 0.00 | 67 | 1010.6 |
| 20260509131019 | 15 | 183 | 9.7 | 11.3 | 0.00 | 0.00 | 0.00 | 66 | 1010.4 |
| 20260509130514 | 15 | 138 | 8.0 | 8.0 | 0.00 | 0.00 | 0.00 | 65 | 1010.5 |
| 20260509130011 | 15 | 174 | 6.4 | 8.0 | 0.00 | 0.00 | 0.00 | 64 | 1010.4 |
| 20260509125508 | 15 | 150 | 4.8 | 4.8 | 0.00 | 0.00 | 0.00 | 65 | 1010.5 |
| 20260509125004 | 15 | 136 | 0.0 | 1.6 | 0.00 | 0.00 | 0.00 | 65 | 1010.4 |
| 20260509124501 | 15 | 175 | 4.8 | 4.8 | 0.00 | 0.00 | 0.00 | 65 | 1010.3 |
| 20260509123958 | 15 | 150 | 0.0 | 1.6 | 0.00 | 0.00 | 0.00 | 66 | 1010.4 |
| 20260509123456 | 15 | 110 | 0.0 | 1.6 | 0.00 | 0.00 | 0.00 | 65 | 1010.5 |
| 20260509122951 | 15 | 149 | 1.6 | 1.6 | 0.00 | 0.00 | 0.00 | 65 | 1010.6 |
| 20260509122448 | 14 | 144 | 0.0 | 1.6 | 0.00 | 0.00 | 0.00 | 64 | 1010.6 |
| 20260509121945 | 13 | 154 | 1.6 | 1.6 | 0.00 | 0.00 | 0.00 | 65 | 1010.6 |
| 20260509121442 | 13 | 153 | 1.6 | 1.6 | 0.00 | 0.00 | 0.00 | 68 | 1010.6 |
| 20260509120940 | 14 | 152 | 0.0 | 0.0 | 0.00 | 0.00 | 0.00 | 73 | 1010.4 |
| 20260509120438 | 13 | 172 | 1.6 | 1.6 | 0.00 | 0.00 | 0.00 | 67 | 1010.3 |
| 20260509115935 | 13 | 127 | 0.0 | 0.0 | 0.00 | 0.00 | 0.00 | 67 | 1010.4 |
| 20260509115432 | 13 | 120 | 0.0 | 0.0 | 0.00 | 0.00 | 0.00 | 69 | 1010.3 |
| 20260509114930 | 13 | 120 | 0.0 | 0.0 | 0.00 | 0.00 | 0.00 | 68 | 1010.5 |
| 20260509114428 | 13 | 119 | 0.0 | 0.0 | 0.00 | 0.00 | 0.00 | 67 | 1010.5 |
| 20260509113928 | 13 | 120 | 0.0 | 0.0 | 0.00 | 0.00 | 0.00 | 67 | 1010.7 |
| 20260509113424 | 13 | 121 | 0.0 | 0.0 | 0.00 | 0.00 | 0.00 | 67 | 1010.6 |
| 20260509112921 | 12 | 123 | 0.0 | 0.0 | 0.00 | 0.00 | 0.00 | 67 | 1010.6 |
| 20260509112419 | 12 | 123 | 0.0 | 0.0 | 0.00 | 0.00 | 0.00 | 66 | 1010.5 |
| 20260509111915 | 12 | 113 | 0.0 | 1.6 | 0.00 | 0.00 | 0.00 | 67 | 1010.4 |
| 20260509111412 | 12 | 121 | 0.0 | 0.0 | 0.00 | 0.00 | 0.00 | 68 | 1010.6 |
| 20260509110910 | 12 | 110 | 0.0 | 1.6 | 0.00 | 0.00 | 0.00 | 67 | 1010.3 |
| 20260509110405 | 12 | 120 | 0.0 | 0.0 | 0.00 | 0.00 | 0.00 | 67 | 1010.6 |
| 20260509105904 | 12 | 108 | 0.0 | 1.6 | 0.00 | 0.00 | 0.00 | 67 | 1010.6 |
| 20260509105402 | 11 | 121 | 0.0 | 0.0 | 0.00 | 0.00 | 0.00 | 68 | 1010.6 |
| 20260509104858 | 11 | 121 | 0.0 | 0.0 | 0.00 | 0.00 | 0.00 | 69 | 1010.5 |
| 20260509104355 | 11 | 111 | 0.0 | 0.0 | 0.00 | 0.00 | 0.00 | 70 | 1010.6 |
| 20260509103853 | 11 | 110 | 0.0 | 0.0 | 0.00 | 0.00 | 0.00 | 70 | 1010.5 |
| 20260509103350 | 11 | 124 | 0.0 | 0.0 | 0.00 | 0.00 | 0.00 | 69 | 1010.4 |
| 20260509102849 | 11 | 136 | 0.0 | 0.0 | 0.00 | 0.00 | 0.00 | 68 | 1010.6 |
| 20260509102346 | 11 | 121 | 0.0 | 0.0 | 0.00 | 0.00 | 0.00 | 67 | 1010.5 |
| 20260509101841 | 11 | 122 | 0.0 | 0.0 | 0.00 | 0.00 | 0.00 | 67 | 1010.6 |
| 20260509101337 | 11 | 124 | 0.0 | 0.0 | 0.00 | 0.00 | 0.00 | 67 | 1010.5 |
| 20260509100836 | 11 | 121 | 0.0 | 0.0 | 0.00 | 0.00 | 0.00 | 67 | 1010.5 |
| 20260509100332 | 11 | 110 | 0.0 | 0.0 | 0.00 | 0.00 | 0.00 | 68 | 1011.0 |
| 20260509095829 | 11 | 119 | 0.0 | 0.0 | 0.00 | 0.00 | 0.00 | 68 | 1010.7 |
| 20260509095326 | 11 | 88 | 1.6 | 1.6 | 0.00 | 0.00 | 0.00 | 68 | 1010.7 |
| 20260509094823 | 11 | 120 | 0.0 | 0.0 | 0.00 | 0.00 | 0.00 | 67 | 1010.6 |
| 20260509094320 | 11 | 128 | 1.6 | 1.6 | 0.00 | 0.00 | 0.00 | 65 | 1010.6 |
| 20260509093818 | 11 | 135 | 1.6 | 1.6 | 0.00 | 0.00 | 0.00 | 64 | 1010.8 |
| 20260509093315 | 11 | 112 | 0.0 | 0.0 | 0.00 | 0.00 | 0.00 | 65 | 1010.6 |
| 20260509092813 | 11 | 131 | 0.0 | 1.6 | 0.00 | 0.00 | 0.00 | 65 | 1010.7 |
| 20260509092311 | 11 | 116 | 0.0 | 0.0 | 0.00 | 0.00 | 0.00 | 65 | 1010.6 |
| 20260509091809 | 11 | 102 | 1.6 | 1.6 | 0.00 | 0.00 | 0.00 | 65 | 1010.8 |
| 20260509091305 | 11 | 112 | 0.0 | 0.0 | 0.00 | 0.00 | 0.00 | 66 | 1010.8 |
| 20260509090803 | 11 | 104 | 0.0 | 0.0 | 0.00 | 0.00 | 0.00 | 66 | 1010.7 |
| 20260509090259 | 11 | 119 | 0.0 | 0.0 | 0.00 | 0.00 | 0.00 | 65 | 1010.7 |
| 20260509085757 | 11 | 123 | 0.0 | 0.0 | 0.00 | 0.00 | 0.00 | 65 | 1011.0 |
| 20260509085254 | 11 | 164 | 0.0 | 0.0 | 0.00 | 0.00 | 0.00 | 63 | 1010.8 |
| 20260509084751 | 11 | 109 | 0.0 | 0.0 | 0.00 | 0.00 | 0.00 | 64 | 1010.7 |
| 20260509084247 | 11 | 139 | 0.0 | 0.0 | 0.00 | 0.00 | 0.00 | 63 | 1011.0 |
| 20260509083745 | 11 | 116 | 0.0 | 0.0 | 0.00 | 0.00 | 0.00 | 63 | 1010.7 |
| 20260509083242 | 11 | 115 | 0.0 | 0.0 | 0.00 | 0.00 | 0.00 | 64 | 1011.1 |
| 20260509082738 | 11 | 119 | 0.0 | 0.0 | 0.00 | 0.00 | 0.00 | 66 | 1011.1 |
| 20260509082235 | 11 | 125 | 0.0 | 0.0 | 0.00 | 0.00 | 0.00 | 67 | 1011.1 |
| 20260509081732 | 11 | 126 | 0.0 | 0.0 | 0.00 | 0.00 | 0.00 | 68 | 1011.1 |
| 20260509081230 | 11 | 134 | 0.0 | 0.0 | 0.00 | 0.00 | 0.00 | 68 | 1011.1 |
| 20260509080727 | 11 | 173 | 3.2 | 3.2 | 0.00 | 0.00 | 0.00 | 68 | 1011.0 |
| 20260509080225 | 11 | 105 | 0.0 | 1.6 | 0.00 | 0.00 | 0.00 | 67 | 1011.0 |
| 20260509075723 | 11 | 141 | 0.0 | 0.0 | 0.00 | 0.00 | 0.00 | 64 | 1011.2 |
| 20260509075220 | 11 | 113 | 0.0 | 0.0 | 0.00 | 0.00 | 0.00 | 65 | 1011.0 |
| 20260509074717 | 11 | 124 | 0.0 | 0.0 | 0.00 | 0.00 | 0.00 | 62 | 1011.3 |
| 20260509074215 | 11 | 110 | 0.0 | 0.0 | 0.00 | 0.00 | 0.00 | 65 | 1011.1 |
| 20260509073711 | 12 | 110 | 0.0 | 0.0 | 0.00 | 0.00 | 0.00 | 64 | 1011.3 |
| 20260509073207 | 12 | 132 | 0.0 | 0.0 | 0.00 | 0.00 | 0.00 | 60 | 1011.4 |
| 20260509072704 | 11 | 113 | 0.0 | 1.6 | 0.00 | 0.00 | 0.00 | 62 | 1011.4 |
| 20260509072201 | 11 | 119 | 0.0 | 0.0 | 0.00 | 0.00 | 0.00 | 63 | 1011.4 |
| 20260509071657 | 11 | 113 | 0.0 | 0.0 | 0.00 | 0.00 | 0.00 | 63 | 1011.5 |
| 20260509071155 | 11 | 108 | 0.0 | 1.6 | 0.00 | 0.00 | 0.00 | 63 | 1011.5 |
| 20260509070651 | 11 | 96 | 0.0 | 1.6 | 0.00 | 0.00 | 0.00 | 67 | 1011.4 |
| 20260509070148 | 11 | 107 | 0.0 | 1.6 | 0.00 | 0.00 | 0.00 | 67 | 1011.5 |
| 20260509065644 | 11 | 106 | 0.0 | 1.6 | 0.00 | 0.00 | 0.00 | 68 | 1011.5 |
| 20260509065140 | 11 | 93 | 1.6 | 1.6 | 0.00 | 0.00 | 0.00 | 69 | 1011.5 |
| 20260509064637 | 11 | 109 | 1.6 | 1.6 | 0.00 | 0.00 | 0.00 | 67 | 1011.8 |
| 20260509064135 | 11 | 98 | 1.6 | 1.6 | 0.00 | 0.00 | 0.00 | 67 | 1011.6 |
| 20260509063632 | 10 | 113 | 0.0 | 0.0 | 0.00 | 0.00 | 0.00 | 68 | 1011.5 |
| 20260509063128 | 10 | 116 | 0.0 | 0.0 | 0.00 | 0.00 | 0.00 | 69 | 1011.7 |
| 20260509062626 | 10 | 124 | 0.0 | 0.0 | 0.00 | 0.00 | 0.00 | 69 | 1012.0 |
| 20260509062122 | 10 | 98 | 0.0 | 1.6 | 0.00 | 0.00 | 0.00 | 69 | 1011.8 |
| 20260509061619 | 10 | 112 | 0.0 | 0.0 | 0.00 | 0.00 | 0.00 | 69 | 1012.0 |
| 20260509061117 | 10 | 131 | 0.0 | 0.0 | 0.00 | 0.00 | 0.00 | 71 | 1011.8 |
| 20260509060615 | 10 | 115 | 0.0 | 0.0 | 0.00 | 0.00 | 0.00 | 72 | 1011.9 |
| 20260509060110 | 10 | 125 | 0.0 | 1.6 | 0.00 | 0.00 | 0.00 | 72 | 1012.0 |
| 20260509055606 | 10 | 94 | 1.6 | 1.6 | 0.00 | 0.00 | 0.00 | 73 | 1012.0 |
| 20260509055102 | 9 | 116 | 0.0 | 1.6 | 0.00 | 0.00 | 0.00 | 74 | 1012.1 |
| 20260509054559 | 9 | 112 | 0.0 | 1.6 | 0.00 | 0.00 | 0.00 | 74 | 1012.0 |
| 20260509054056 | 9 | 99 | 1.6 | 1.6 | 0.00 | 0.00 | 0.00 | 73 | 1012.0 |
| 20260509053555 | 10 | 111 | 1.6 | 1.6 | 0.00 | 0.00 | 0.00 | 72 | 1012.0 |
| 20260509053051 | 10 | 96 | 1.6 | 1.6 | 0.00 | 0.00 | 0.00 | 72 | 1012.1 |
| 20260509052549 | 10 | 97 | 1.6 | 1.6 | 0.00 | 0.00 | 0.00 | 70 | 1012.1 |
| 20260509052047 | 11 | 86 | 1.6 | 3.2 | 0.00 | 0.00 | 0.00 | 68 | 1012.0 |
| 20260509051545 | 11 | 110 | 3.2 | 3.2 | 0.00 | 0.00 | 0.00 | 65 | 1012.1 |
| 20260509051041 | 11 | 87 | 1.6 | 1.6 | 0.00 | 0.00 | 0.00 | 66 | 1012.2 |
| 20260509050538 | 11 | 105 | 1.6 | 3.2 | 0.00 | 0.00 | 0.00 | 62 | 1012.1 |
| 20260509050034 | 10 | 112 | 1.6 | 1.6 | 0.00 | 0.00 | 0.00 | 66 | 1012.1 |
| 20260509045532 | 11 | 118 | 1.6 | 1.6 | 0.00 | 0.00 | 0.00 | 67 | 1012.0 |
| 20260509045029 | 10 | 84 | 1.6 | 1.6 | 0.00 | 0.00 | 0.00 | 67 | 1012.0 |
| 20260509044527 | 10 | 87 | 1.6 | 3.2 | 0.00 | 0.00 | 0.00 | 65 | 1011.9 |
| 20260509044024 | 10 | 88 | 1.6 | 3.2 | 0.00 | 0.00 | 0.00 | 67 | 1011.9 |
| 20260509043520 | 10 | 93 | 1.6 | 1.6 | 0.00 | 0.00 | 0.00 | 66 | 1011.9 |
| 20260509043016 | 10 | 99 | 1.6 | 1.6 | 0.00 | 0.00 | 0.00 | 67 | 1011.9 |
| 20260509042512 | 11 | 101 | 1.6 | 1.6 | 0.00 | 0.00 | 0.00 | 67 | 1012.0 |
| 20260509042008 | 11 | 106 | 1.6 | 3.2 | 0.00 | 0.00 | 0.00 | 64 | 1011.9 |
| 20260509041505 | 11 | 99 | 1.6 | 3.2 | 0.00 | 0.00 | 0.00 | 64 | 1012.0 |
| 20260509041003 | 11 | 99 | 1.6 | 1.6 | 0.00 | 0.00 | 0.00 | 62 | 1011.7 |
| 20260509040501 | 11 | 90 | 1.6 | 3.2 | 0.00 | 0.00 | 0.00 | 63 | 1011.9 |
| 20260509035957 | 11 | 107 | 1.6 | 1.6 | 0.00 | 0.00 | 0.00 | 63 | 1012.0 |
| 20260509035454 | 11 | 106 | 1.6 | 1.6 | 0.00 | 0.00 | 0.00 | 64 | 1011.7 |
| 20260509034951 | 12 | 99 | 1.6 | 1.6 | 0.00 | 0.00 | 0.00 | 62 | 1011.9 |
| 20260509034449 | 11 | 94 | 1.6 | 1.6 | 0.00 | 0.00 | 0.00 | 62 | 1012.0 |
| 20260509033945 | 11 | 91 | 1.6 | 1.6 | 0.00 | 0.00 | 0.00 | 62 | 1012.1 |
| 20260509033443 | 11 | 110 | 0.0 | 0.0 | 0.00 | 0.00 | 0.00 | 64 | 1012.0 |
| 20260509032939 | 11 | 107 | 1.6 | 1.6 | 0.00 | 0.00 | 0.00 | 64 | 1012.0 |
| 20260509032437 | 11 | 120 | 0.0 | 0.0 | 0.00 | 0.00 | 0.00 | 63 | 1012.0 |
| 20260509031934 | 11 | 115 | 0.0 | 1.6 | 0.00 | 0.00 | 0.00 | 64 | 1012.0 |
| 20260509031432 | 11 | 111 | 1.6 | 1.6 | 0.00 | 0.00 | 0.00 | 65 | 1012.0 |
| 20260509030929 | 11 | 117 | 0.0 | 0.0 | 0.00 | 0.00 | 0.00 | 64 | 1012.1 |
| 20260509030427 | 12 | 109 | 1.6 | 1.6 | 0.00 | 0.00 | 0.00 | 63 | 1012.0 |
| 20260509025924 | 12 | 99 | 1.6 | 1.6 | 0.00 | 0.00 | 0.00 | 61 | 1012.0 |
| 20260509025419 | 12 | 98 | 1.6 | 1.6 | 0.00 | 0.00 | 0.00 | 61 | 1012.3 |
| 20260509024914 | 12 | 81 | 1.6 | 3.2 | 0.00 | 0.00 | 0.00 | 61 | 1012.1 |
| 20260509024411 | 12 | 108 | 1.6 | 1.6 | 0.00 | 0.00 | 0.00 | 61 | 1012.2 |
| 20260509023908 | 12 | 109 | 0.0 | 1.6 | 0.00 | 0.00 | 0.00 | 60 | 1012.3 |
| 20260509023405 | 12 | 117 | 1.6 | 1.6 | 0.00 | 0.00 | 0.00 | 60 | 1012.4 |
| 20260509022901 | 12 | 120 | 0.0 | 0.0 | 0.00 | 0.00 | 0.00 | 62 | 1012.5 |
| 20260509022359 | 12 | 118 | 0.0 | 0.0 | 0.00 | 0.00 | 0.00 | 61 | 1012.1 |
| 20260509021856 | 13 | 111 | 1.6 | 1.6 | 0.00 | 0.00 | 0.00 | 60 | 1012.3 |
| 20260509021353 | 13 | 99 | 1.6 | 1.6 | 0.00 | 0.00 | 0.00 | 58 | 1012.2 |
| 20260509020850 | 13 | 99 | 1.6 | 1.6 | 0.00 | 0.00 | 0.00 | 57 | 1012.2 |
| 20260509020349 | 13 | 114 | 1.6 | 1.6 | 0.00 | 0.00 | 0.00 | 57 | 1012.1 |